OICC

Shahid Ashrafi Esfahani Airport

Airport
ICAO code
OICC
IATA Code
KSH
Summary
ICAO Region
MID
ICAO Territory
Location

Nokan, Kermanshah Province

Serving
Kermanshah
Elevation
4301 ft
Coordinates
34° 21' 17" N , 47° 8' 50" E
KCC
Metar
Observation
OICC 070230Z 00000KT 8000 FEW040 SCT080 02/M03 Q1020 A3014
Station
Kermanshah
Date/Time
2022-12-07 02:30:00
Wind direction
Wind speed
00 kts
Lowest cloud amount
few clouds
Temperature
2°C
Dew point
-3°C
Humidity
69%
QNH
1020 hPa
Weather condition
n/a

Airport serving the city of Kermanshah and surrounding area in Iran.

Climatology

Hot summer Mediterranean climate (Köppen climate classification Csa).

Runways

Designator Length Width Surface Rops
11/29 3418 45 ASP Yes/Yes

Airport map

Aerial View

SKYbrary Partners:

Safety knowledge contributed by: